Time;durP1;ratioP1;P1;durP2;ratioP2;P2;SDS_P1;SDS_P2;PMS_P1;PMS_P2;Temp;Humidity;BMP_temperature;BMP_pressure;BME280_temperature;BME280_humidity;BME280_pressure;Samples;Min_cycle;Max_cycle;Signal;HPM_P1;HPM_P2
2024/03/15 00:00:05;;;;;;;10.05;6.22;;;;;;;-146.27;75.61;44211.19;5086542;28;20028;-73
2024/03/15 00:02:32;;;;;;;11.73;5.68;;;;;;;-146.27;75.06;44173.38;5088581;28;20035;-72
2024/03/15 00:04:57;;;;;;;9.88;6.00;;;;;;;-146.27;75.73;44171.41;5090067;28;20027;-72
2024/03/15 00:07:24;;;;;;;9.95;5.47;;;;;;;-146.27;75.00;44191.28;5090780;28;20031;-73
2024/03/15 00:09:49;;;;;;;12.98;5.57;;;;;;;-146.27;75.55;44209.19;5089690;28;20035;-72
2024/03/15 00:12:15;;;;;;;9.27;5.80;;;;;;;-146.27;75.81;44183.34;5085050;28;20016;-72
2024/03/15 00:14:43;;;;;;;11.40;5.70;;;;;;;-146.27;75.97;44209.19;5088683;28;20023;-73
2024/03/15 00:17:09;;;;;;;10.63;5.65;;;;;;;-146.27;75.96;44231.09;5090649;28;20437;-72
2024/03/15 00:19:35;;;;;;;8.70;5.35;;;;;;;-146.27;75.24;44141.56;5084707;28;20020;-72
2024/03/15 00:22:00;;;;;;;10.77;5.60;;;;;;;-146.27;75.14;44163.44;5076417;28;20539;-73
2024/03/15 00:24:26;;;;;;;12.23;5.03;;;;;;;-146.27;75.21;44179.34;5091146;28;20039;-73
2024/03/15 00:26:51;;;;;;;10.05;5.63;;;;;;;-146.27;74.71;44137.56;5090684;28;20026;-72
2024/03/15 00:29:18;;;;;;;9.07;4.65;;;;;;;-146.27;74.96;44165.44;5091300;28;20357;-72
2024/03/15 00:31:44;;;;;;;11.50;5.40;;;;;;;-146.27;74.83;44171.41;5091053;28;20494;-72
2024/03/15 00:34:09;;;;;;;8.77;5.40;;;;;;;-146.27;75.27;44183.34;5086776;28;20031;-72
2024/03/15 00:36:35;;;;;;;9.75;5.18;;;;;;;-146.27;74.18;44157.47;5087199;28;20024;-72
2024/03/15 00:39:02;;;;;;;11.23;5.28;;;;;;;-146.27;74.75;44163.44;5091291;28;20031;-73
2024/03/15 00:41:28;;;;;;;10.65;4.90;;;;;;;-146.27;74.91;44229.09;5082518;28;20058;-72
2024/03/15 00:43:53;;;;;;;7.93;5.20;;;;;;;-146.27;73.40;44123.66;5089214;28;20111;-73
2024/03/15 00:46:20;;;;;;;8.32;4.90;;;;;;;-146.27;73.88;44175.38;5078404;28;20028;-72
2024/03/15 00:48:53;;;;;;;8.35;4.82;;;;;;;-146.27;74.17;44155.47;5071191;28;20099;-73
2024/03/15 00:51:18;;;;;;;9.25;5.05;;;;;;;-146.27;74.40;44223.13;5093503;28;20093;-73
2024/03/15 00:53:44;;;;;;;7.60;5.30;;;;;;;-146.27;74.38;44239.03;5090163;28;20036;-73
2024/03/15 00:56:12;;;;;;;7.43;4.65;;;;;;;-146.27;73.48;44151.50;5090166;28;20023;-73
2024/03/15 00:58:38;;;;;;;8.45;4.95;;;;;;;-146.27;73.78;44193.28;5088951;28;20024;-76
2024/03/15 01:01:07;;;;;;;13.80;4.88;;;;;;;-146.27;73.08;44155.47;5087088;28;20066;-76
2024/03/15 01:03:33;;;;;;;8.60;4.80;;;;;;;-146.27;74.08;44211.19;5077585;28;20032;-75
2024/03/15 01:06:01;;;;;;;9.52;4.93;;;;;;;-146.27;73.70;44211.19;5082993;28;20393;-75
2024/03/15 01:08:28;;;;;;;10.02;5.13;;;;;;;-146.27;72.95;44155.47;5089071;28;20028;-76
2024/03/15 01:10:53;;;;;;;11.18;4.95;;;;;;;-146.27;73.93;44191.28;5088944;28;20024;-75
2024/03/15 01:13:19;;;;;;;9.68;4.80;;;;;;;-146.27;74.58;44187.31;5088270;28;20085;-75
2024/03/15 01:15:45;;;;;;;9.82;5.13;;;;;;;-146.27;75.06;44241.03;5089570;28;20066;-76
2024/03/15 01:18:12;;;;;;;13.75;5.72;;;;;;;-146.27;75.27;44262.91;5087511;28;20517;-75
2024/03/15 01:20:37;;;;;;;12.73;5.63;;;;;;;-146.27;76.93;44270.88;5076490;28;20077;-76
2024/03/15 01:23:03;;;;;;;9.45;5.32;;;;;;;-146.27;76.22;44245.00;5089335;28;20032;-76
2024/03/15 01:25:35;;;;;;;10.48;5.10;;;;;;;-146.27;76.10;44155.47;5089518;28;20734;-76
2024/03/15 01:28:01;;;;;;;10.38;5.47;;;;;;;-146.27;78.20;44243.03;5090640;28;20036;-75
2024/03/15 01:30:27;;;;;;;8.77;5.47;;;;;;;-146.27;77.60;44151.50;5089821;28;20032;-76
2024/03/15 01:32:52;;;;;;;8.27;5.32;;;;;;;-146.27;77.17;44095.78;5090645;28;20031;-76
2024/03/15 01:35:17;;;;;;;8.52;5.05;;;;;;;-146.27;77.12;44056.00;5089513;28;20031;-75
2024/03/15 01:37:43;;;;;;;13.38;5.25;;;;;;;-146.27;77.91;43996.31;5084630;28;20028;-75
2024/03/15 01:40:11;;;;;;;10.52;5.80;;;;;;;-146.27;77.85;43968.47;5086430;28;20032;-76
2024/03/15 01:42:36;;;;;;;8.25;5.50;;;;;;;-146.27;81.03;43572.56;5087659;28;20031;-76
2024/03/15 01:45:03;;;;;;;8.02;5.35;;;;;;;-146.27;82.06;43284.13;5088637;28;20491;-75
2024/03/15 01:47:30;;;;;;;9.95;5.90;;;;;;;-146.27;81.44;43138.94;5087740;28;20031;-76
2024/03/15 01:49:57;;;;;;;9.30;5.30;;;;;;;-146.27;82.54;43123.00;5080596;28;20036;-76
2024/03/15 01:52:24;;;;;;;10.93;6.13;;;;;;;-146.27;82.98;43049.41;5088219;28;20027;-76
2024/03/15 01:54:54;;;;;;;12.10;6.05;;;;;;;-146.27;84.01;43037.50;5082126;28;20055;-75
2024/03/15 01:57:20;;;;;;;12.02;6.15;;;;;;;-146.27;85.30;43009.63;5080056;28;20028;-77
2024/03/15 01:59:45;;;;;;;9.27;5.78;;;;;;;-146.27;86.33;42977.81;5078176;28;20082;-76
2024/03/15 02:02:14;;;;;;;13.80;6.53;;;;;;;-146.27;85.97;42840.56;5083213;28;20036;-76
2024/03/15 02:04:40;;;;;;;12.32;5.93;;;;;;;-146.27;86.32;42790.84;5089048;28;20042;-76
2024/03/15 02:07:06;;;;;;;9.60;6.10;;;;;;;-146.27;86.54;42739.16;5084097;28;20039;-76
2024/03/15 02:09:31;;;;;;;10.88;6.63;;;;;;;-146.27;88.24;42824.66;5087586;28;20040;-72
2024/03/15 02:11:57;;;;;;;9.95;6.07;;;;;;;-146.27;89.02;42774.94;5087376;28;20062;-72
2024/03/15 02:14:24;;;;;;;11.98;6.20;;;;;;;-146.27;89.78;42623.78;5089014;28;20024;-72
2024/03/15 02:16:50;;;;;;;13.48;7.00;;;;;;;-146.27;90.64;42576.06;5086769;28;20072;-72
2024/03/15 02:19:15;;;;;;;11.60;6.28;;;;;;;-146.27;90.37;42576.06;5089556;28;20024;-72
2024/03/15 02:21:41;;;;;;;13.82;6.65;;;;;;;-146.27;90.73;42474.63;5087157;28;20288;-72
2024/03/15 02:24:07;;;;;;;11.85;6.80;;;;;;;-146.27;90.08;42420.94;5095766;28;20033;-72
2024/03/15 02:26:33;;;;;;;12.43;6.80;;;;;;;-146.27;91.18;42448.78;5088012;28;20024;-72
2024/03/15 02:28:59;;;;;;;15.35;8.00;;;;;;;-146.27;91.77;42456.72;5088910;28;20119;-73
2024/03/15 02:31:25;;;;;;;13.65;7.55;;;;;;;-146.27;91.61;42381.16;5087902;28;20057;-72
2024/03/15 02:33:50;;;;;;;16.92;7.55;;;;;;;-146.27;91.80;42393.09;5089899;28;20426;-72
2024/03/15 02:36:16;;;;;;;14.63;7.38;;;;;;;-146.27;92.51;42347.34;5093005;28;20024;-72
2024/03/15 02:38:42;;;;;;;15.80;8.52;;;;;;;-146.27;92.70;42319.50;5093374;28;20027;-72
2024/03/15 02:41:13;;;;;;;11.30;7.78;;;;;;;-146.27;91.50;42226.03;5093161;28;20472;-74
2024/03/15 02:43:39;;;;;;;15.07;8.88;;;;;;;-146.27;92.22;42265.81;5094076;28;20482;-72
2024/03/15 02:46:05;;;;;;;16.27;8.25;;;;;;;-146.27;91.45;42210.13;5093345;28;20027;-72
2024/03/15 02:48:32;;;;;;;12.93;7.43;;;;;;;-146.27;92.00;42275.75;5093791;28;20028;-73
2024/03/15 02:50:58;;;;;;;11.35;6.80;;;;;;;-146.27;91.59;42210.13;5093596;28;20132;-72
2024/03/15 02:53:24;;;;;;;10.50;6.78;;;;;;;-146.27;92.08;42230.03;5090082;28;20059;-73
2024/03/15 02:55:50;;;;;;;17.63;6.95;;;;;;;-146.27;90.80;42190.25;5093485;28;20040;-72
2024/03/15 02:58:15;;;;;;;13.15;6.90;;;;;;;-146.27;90.81;42269.78;5092227;28;20102;-72
2024/03/15 03:00:41;;;;;;;12.02;6.55;;;;;;;-146.27;92.10;42305.59;5091587;28;20388;-73
2024/03/15 03:03:10;;;;;;;9.65;6.55;;;;;;;-146.27;91.23;42192.25;5093352;28;20105;-73
2024/03/15 03:05:36;;;;;;;9.82;5.68;;;;;;;-146.27;90.40;42162.41;5093416;28;20051;-73
2024/03/15 03:08:01;;;;;;;11.60;6.45;;;;;;;-146.27;89.85;42162.41;5091983;28;20120;-73
2024/03/15 03:10:27;;;;;;;12.80;5.68;;;;;;;-146.27;89.44;42168.38;5091021;28;20020;-72
2024/03/15 03:12:53;;;;;;;11.98;5.75;;;;;;;-146.27;89.74;42243.94;5092540;28;20028;-73
2024/03/15 03:15:19;;;;;;;11.05;5.70;;;;;;;-146.27;90.26;42263.81;5091595;28;20026;-73
2024/03/15 03:17:45;;;;;;;8.35;5.63;;;;;;;-146.27;89.88;42237.97;5093235;28;20032;-73
2024/03/15 03:20:18;;;;;;;10.85;5.45;;;;;;;-146.27;89.45;42200.19;5093118;28;20027;-73
2024/03/15 03:22:43;;;;;;;9.02;4.97;;;;;;;-146.27;89.16;42269.78;5094376;28;20133;-72
2024/03/15 03:25:10;;;;;;;11.32;5.25;;;;;;;-146.27;88.67;42249.91;5092711;28;20550;-72
2024/03/15 03:27:35;;;;;;;8.32;4.85;;;;;;;-146.27;88.64;42243.94;5091452;28;20028;-72
2024/03/15 03:30:01;;;;;;;9.60;5.85;;;;;;;-146.27;87.92;42198.19;5092721;28;20391;-76
2024/03/15 03:32:27;;;;;;;11.05;5.28;;;;;;;-146.27;87.65;42180.31;5092068;28;20028;-76
2024/03/15 03:34:52;;;;;;;10.32;4.68;;;;;;;-146.27;88.58;42293.66;5092963;28;20047;-76
2024/03/15 03:37:18;;;;;;;8.18;4.85;;;;;;;-146.27;88.30;42277.75;5092823;28;20030;-76
2024/03/15 03:39:44;;;;;;;6.95;4.45;;;;;;;-146.27;87.58;42236.00;5092455;28;20217;-76
2024/03/15 03:42:11;;;;;;;6.82;4.65;;;;;;;-146.27;88.08;42379.16;5099836;28;20024;-76
2024/03/15 03:44:37;;;;;;;8.43;4.85;;;;;;;-146.27;89.43;42343.38;5103524;28;20020;-76
2024/03/15 03:47:03;;;;;;;14.63;4.95;;;;;;;-146.27;89.02;42293.66;5098360;28;20056;-76
2024/03/15 03:49:28;;;;;;;9.23;5.18;;;;;;;-146.27;89.85;42391.09;5093873;28;20441;-76
2024/03/15 03:51:53;;;;;;;16.65;5.82;;;;;;;-146.27;89.47;42305.59;5087595;28;20020;-76
2024/03/15 03:54:19;;;;;;;12.85;5.65;;;;;;;-146.27;90.31;42333.44;5087471;28;20029;-76
2024/03/15 03:56:45;;;;;;;15.13;6.35;;;;;;;-146.27;89.49;42259.84;5091852;28;20603;-76
2024/03/15 03:59:10;;;;;;;13.90;6.22;;;;;;;-146.27;89.72;42243.94;5089993;28;20546;-76
2024/03/15 04:01:35;;;;;;;11.20;6.10;;;;;;;-146.27;89.83;42267.81;5092742;28;20016;-76
2024/03/15 04:04:01;;;;;;;14.38;6.35;;;;;;;-146.27;90.60;42307.56;5095761;28;20032;-76
2024/03/15 04:06:27;;;;;;;12.88;6.63;;;;;;;-146.27;89.73;42255.88;5091065;28;20031;-76
2024/03/15 04:08:52;;;;;;;12.88;7.25;;;;;;;-146.27;89.20;42243.94;5081267;28;20035;-76
2024/03/15 04:11:18;;;;;;;11.38;6.95;;;;;;;-146.27;89.29;42271.78;5090331;28;20028;-76
2024/03/15 04:13:44;;;;;;;16.02;6.65;;;;;;;-146.27;89.86;42251.91;5090492;28;20051;-76
2024/03/15 04:16:10;;;;;;;16.60;6.28;;;;;;;-146.27;90.75;42319.50;5091419;28;20024;-76
2024/03/15 04:18:35;;;;;;;11.70;6.78;;;;;;;-146.27;92.12;42339.41;5092110;28;20035;-75
2024/03/15 04:21:01;;;;;;;17.50;6.20;;;;;;;-146.27;91.78;42369.22;5086559;28;20277;-75
2024/03/15 04:23:26;;;;;;;10.10;5.50;;;;;;;-146.27;92.47;42321.50;5091670;28;20038;-76
2024/03/15 04:25:52;;;;;;;10.18;5.38;;;;;;;-146.27;93.15;42285.72;5091293;28;20040;-75
2024/03/15 04:28:21;;;;;;;11.85;5.72;;;;;;;-146.27;91.97;42224.06;5090146;28;20028;-76
2024/03/15 04:30:47;;;;;;;10.38;5.88;;;;;;;-146.27;92.68;42228.03;5084771;28;20025;-76
2024/03/15 04:33:13;;;;;;;12.25;5.85;;;;;;;-146.27;93.06;42261.84;5088541;28;20614;-76
2024/03/15 04:35:40;;;;;;;14.20;5.97;;;;;;;-146.27;95.22;42277.75;5091094;28;20024;-76
2024/03/15 04:38:05;;;;;;;11.32;6.22;;;;;;;-146.27;94.63;42220.06;5091245;28;20035;-76
2024/03/15 04:40:31;;;;;;;12.45;6.07;;;;;;;-146.27;94.55;42126.63;5088619;28;20035;-72
2024/03/15 04:42:59;;;;;;;11.52;6.05;;;;;;;-146.27;96.44;42253.88;5089383;28;20027;-72
2024/03/15 04:45:24;;;;;;;11.45;5.78;;;;;;;-146.27;95.44;42184.28;5081253;28;20025;-72
2024/03/15 04:47:50;;;;;;;8.25;5.07;;;;;;;-146.27;94.41;42106.72;5091623;28;20546;-72
2024/03/15 04:50:15;;;;;;;10.98;5.80;;;;;;;-146.27;96.77;42257.88;5087028;28;20036;-72
2024/03/15 04:52:42;;;;;;;7.70;6.22;;;;;;;-146.27;96.42;42150.47;5076160;28;20252;-72
2024/03/15 04:55:11;;;;;;;11.43;6.60;;;;;;;-146.27;96.95;42126.63;5074079;28;20030;-72
2024/03/15 04:57:39;;;;;;;11.02;7.18;;;;;;;-146.27;96.41;41965.53;5090248;28;20020;-72
2024/03/15 05:00:17;;;;;;;16.20;7.57;;;;;;;-146.27;96.07;41941.69;5088180;28;20030;-73
2024/03/15 05:02:43;;;;;;;13.77;7.13;;;;;;;-146.27;95.39;41913.84;5078944;28;20024;-72
2024/03/15 05:05:08;;;;;;;10.68;6.65;;;;;;;-146.27;95.17;41876.06;5090337;28;20498;-72
2024/03/15 05:07:34;;;;;;;12.65;6.38;;;;;;;-146.27;94.75;41931.75;5091174;28;20096;-72
2024/03/15 05:09:59;;;;;;;18.38;6.72;;;;;;;-146.27;95.65;41884.00;5088486;28;20043;-72
2024/03/15 05:12:24;;;;;;;8.98;6.10;;;;;;;-146.27;95.23;41953.63;5076247;28;20032;-72
2024/03/15 05:14:50;;;;;;;11.77;6.28;;;;;;;-146.27;94.17;41895.94;5087241;28;20032;-72
2024/03/15 05:17:15;;;;;;;11.45;6.43;;;;;;;-146.27;94.35;41917.81;5082114;28;20065;-72
2024/03/15 05:19:40;;;;;;;12.57;6.45;;;;;;;-146.27;95.04;41959.56;5089826;28;20023;-72
2024/03/15 05:22:06;;;;;;;16.10;7.57;;;;;;;-146.27;96.34;41927.75;5078314;28;20035;-72
2024/03/15 05:24:31;;;;;;;14.90;6.25;;;;;;;-146.27;94.46;41895.94;5090068;28;20089;-73
2024/03/15 05:26:57;;;;;;;14.45;6.43;;;;;;;-146.27;94.89;41852.19;5074233;28;20553;-72
2024/03/15 05:29:23;;;;;;;20.38;7.78;;;;;;;-146.27;93.83;41844.25;5089649;28;20042;-73
2024/03/15 05:31:48;;;;;;;15.15;6.63;;;;;;;-146.27;93.47;41794.53;5074789;28;20028;-73
2024/03/15 05:34:14;;;;;;;13.38;7.68;;;;;;;-146.27;95.18;42017.25;5088019;28;20053;-72
2024/03/15 05:36:40;;;;;;;18.30;6.57;;;;;;;-146.27;93.63;41888.00;5087996;28;20119;-72
2024/03/15 05:39:10;;;;;;;12.15;7.00;;;;;;;-146.27;94.46;41949.63;5078772;28;20118;-73
2024/03/15 05:41:36;;;;;;;14.00;7.63;;;;;;;-146.27;93.19;41874.06;5087408;28;20101;-72
2024/03/15 05:44:01;;;;;;;18.48;7.10;;;;;;;-146.27;95.12;41951.63;5088879;28;20063;-72
2024/03/15 05:46:26;;;;;;;10.90;6.00;;;;;;;-146.27;94.16;41858.16;5082960;28;20023;-73
2024/03/15 05:48:53;;;;;;;12.60;5.25;;;;;;;-146.27;93.73;41939.69;5084021;28;20019;-72
2024/03/15 05:51:20;;;;;;;13.60;6.50;;;;;;;-146.27;93.89;41943.66;5088904;28;20028;-72
2024/03/15 05:53:46;;;;;;;18.30;6.35;;;;;;;-146.27;93.70;42027.19;5089043;28;20161;-72
2024/03/15 05:56:13;;;;;;;16.83;5.72;;;;;;;-146.27;93.81;41969.53;5086393;28;20039;-73
2024/03/15 05:58:38;;;;;;;12.52;4.53;;;;;;;-146.27;92.84;42059.00;5091547;28;20404;-72
2024/03/15 06:01:03;;;;;;;20.83;5.20;;;;;;;-146.27;92.26;42011.28;5084220;28;20024;-72
2024/03/15 06:03:29;;;;;;;13.30;4.20;;;;;;;-146.27;91.31;41963.56;5087995;28;20035;-73
2024/03/15 06:05:54;;;;;;;12.45;4.80;;;;;;;-146.27;90.39;41959.56;5086785;28;20130;-74
2024/03/15 06:08:20;;;;;;;16.13;5.25;;;;;;;-146.27;91.78;42092.81;5088029;28;20020;-73
2024/03/15 06:10:46;;;;;;;10.43;4.22;;;;;;;-146.27;91.43;42076.91;5087830;28;20142;-73
2024/03/15 06:13:11;;;;;;;18.42;5.15;;;;;;;-146.27;90.93;42039.13;5084545;28;20130;-73
2024/03/15 06:15:38;;;;;;;14.80;4.13;;;;;;;-146.27;90.40;42082.88;5084913;28;20167;-72
2024/03/15 06:18:04;;;;;;;16.85;5.13;;;;;;;-146.27;90.34;42013.28;5085871;28;20396;-70
2024/03/15 06:20:31;;;;;;;11.63;3.70;;;;;;;-146.27;90.71;42072.94;5087444;28;20031;-71
2024/03/15 06:22:57;;;;;;;17.73;3.72;;;;;;;-146.27;90.99;42166.38;5087881;28;20043;-73
2024/03/15 06:25:25;;;;;;;18.80;4.55;;;;;;;-146.27;90.75;42102.75;5081560;28;20044;-73
2024/03/15 06:27:51;;;;;;;17.00;4.53;;;;;;;-146.27;90.52;42202.19;5089480;28;20027;-74
2024/03/15 06:30:17;;;;;;;12.25;3.78;;;;;;;-146.27;90.29;42162.41;5087198;28;20035;-73
2024/03/15 06:32:43;;;;;;;11.45;3.35;;;;;;;-146.27;90.03;42214.13;5083833;28;20016;-74
2024/03/15 06:35:27;;;;;;;16.05;3.50;;;;;;;-146.27;89.82;42301.63;5088241;28;20020;-73
2024/03/15 06:38:07;;;;;;;;;;;;;;;-146.27;90.32;42359.28;5088514;28;20035;-73
2024/03/15 06:40:56;;;;;;;13.38;2.97;;;;;;;-146.27;89.42;42329.47;5087652;28;19915;-72
2024/03/15 06:43:42;;;;;;;8.48;3.10;;;;;;;-146.27;88.85;42414.97;5087515;28;20020;-73
2024/03/15 06:49:12;;;;;;;13.10;3.67;;;;;;;-146.27;90.69;42761.03;5087151;28;20042;-73
2024/03/15 06:54:21;;;;;;;18.20;3.60;;;;;;;-146.27;88.29;42755.06;5086177;28;20030;-72
2024/03/15 06:56:47;;;;;;;19.13;3.10;;;;;;;-146.27;89.25;42878.38;5085594;28;20032;-72
2024/03/15 06:59:12;;;;;;;8.93;3.22;;;;;;;-146.27;89.10;42928.09;5091701;28;20027;-75
2024/03/15 07:01:38;;;;;;;15.65;3.38;;;;;;;-146.27;88.83;42930.09;5087265;28;20028;-75
2024/03/15 07:04:05;;;;;;;11.82;2.40;;;;;;;-146.27;87.31;42918.16;5082658;28;20462;-75
2024/03/15 07:06:31;;;;;;;11.90;3.25;;;;;;;-146.27;87.33;42918.16;5089624;28;20025;-76
2024/03/15 07:08:57;;;;;;;10.07;2.22;;;;;;;-146.27;87.40;43043.44;5087427;28;20023;-75
2024/03/15 07:11:34;;;;;;;14.75;2.42;;;;;;;-146.27;87.48;43049.41;5084999;28;20107;-76
2024/03/15 07:14:04;;;;;;;13.85;2.42;;;;;;;-146.27;87.44;42983.78;5086044;28;20028;-74
2024/03/15 07:16:30;;;;;;;12.98;2.25;;;;;;;-146.27;87.56;43023.56;5086655;28;20127;-75
2024/03/15 07:18:56;;;;;;;6.85;1.65;;;;;;;-146.27;86.51;42969.84;5088402;28;20035;-75
2024/03/15 07:21:22;;;;;;;11.02;2.08;;;;;;;-146.27;86.80;43041.47;5080600;28;20408;-75
2024/03/15 07:23:48;;;;;;;10.18;2.45;;;;;;;-146.27;86.67;42955.94;5087297;28;20028;-75
2024/03/15 07:26:14;;;;;;;15.93;2.35;;;;;;;-146.27;87.16;43105.13;5095231;28;20408;-75
2024/03/15 07:28:40;;;;;;;9.43;1.88;;;;;;;-146.27;87.51;43047.44;5091691;28;20114;-75
2024/03/15 07:31:05;;;;;;;11.38;2.28;;;;;;;-146.27;86.74;42985.78;5084754;28;20565;-75
2024/03/15 07:33:31;;;;;;;10.32;1.98;;;;;;;-146.27;87.15;43140.91;5089820;28;20020;-73
2024/03/15 07:36:01;;;;;;;18.85;2.13;;;;;;;-146.27;86.56;43013.63;5081764;28;20047;-75
2024/03/15 07:38:26;;;;;;;13.68;2.40;;;;;;;-146.27;86.03;43023.56;5093098;28;20081;-75
2024/03/15 07:40:51;;;;;;;14.70;2.28;;;;;;;-146.27;85.39;42981.78;5097116;28;20422;-76
2024/03/15 07:43:17;;;;;;;14.98;2.33;;;;;;;-146.27;86.42;43083.22;5097637;28;20024;-76
2024/03/15 07:45:43;;;;;;;13.40;2.70;;;;;;;-146.27;86.40;43127.00;5092614;28;20024;-74
2024/03/15 07:48:09;;;;;;;11.20;2.00;;;;;;;-146.27;86.15;43051.41;5092662;28;20035;-74
2024/03/15 07:50:36;;;;;;;13.10;2.10;;;;;;;-146.27;85.33;43132.97;5097348;28;20028;-74
2024/03/15 07:53:04;;;;;;;8.77;2.08;;;;;;;-146.27;85.14;43176.72;5099782;28;20487;-73
2024/03/15 07:55:30;;;;;;;20.67;2.67;;;;;;;-146.27;85.30;43162.78;5094242;28;20106;-72
2024/03/15 07:57:57;;;;;;;16.08;1.77;;;;;;;-146.27;84.75;43140.91;5096495;28;20047;-74
2024/03/15 08:00:23;;;;;;;14.27;2.28;;;;;;;-146.27;84.48;43152.84;5090278;28;20538;-74
2024/03/15 08:02:48;;;;;;;14.05;3.20;;;;;;;-146.27;84.35;43125.00;5096901;28;20020;-75
2024/03/15 08:05:16;;;;;;;10.02;2.17;;;;;;;-146.27;83.27;43049.41;5093023;28;20053;-75
2024/03/15 08:07:41;;;;;;;13.82;2.45;;;;;;;-146.27;82.33;43021.56;5101019;28;20080;-74
2024/03/15 08:10:10;;;;;;;11.85;2.38;;;;;;;-146.27;83.18;43170.75;5096385;28;20492;-74
2024/03/15 08:12:37;;;;;;;11.27;2.55;;;;;;;-146.27;82.41;43140.91;5090503;28;20028;-74
2024/03/15 08:15:04;;;;;;;16.92;2.47;;;;;;;-146.27;83.84;43172.75;5096475;28;20032;-74
2024/03/15 08:17:30;;;;;;;13.82;2.63;;;;;;;-146.27;83.52;43192.63;5078563;28;20062;-76
2024/03/15 08:19:55;;;;;;;12.23;2.63;;;;;;;-146.27;83.08;43109.09;5073327;28;20021;-74
2024/03/15 08:22:21;;;;;;;9.88;2.30;;;;;;;-146.27;83.11;43148.88;5097733;28;20031;-73
2024/03/15 08:24:47;;;;;;;14.95;3.03;;;;;;;-146.27;82.76;43160.81;5089306;28;20040;-75
2024/03/15 08:27:12;;;;;;;14.95;3.20;;;;;;;-146.27;82.55;43184.69;5086221;28;20956;-74
2024/03/15 08:29:39;;;;;;;10.30;2.17;;;;;;;-146.27;81.95;43156.84;5093390;28;20530;-74
2024/03/15 08:32:07;;;;;;;16.83;2.90;;;;;;;-146.27;82.01;43113.06;5101498;28;20392;-75
2024/03/15 08:34:34;;;;;;;7.93;2.47;;;;;;;-146.27;82.44;43252.31;5104766;28;20485;-73
2024/03/15 08:37:01;;;;;;;14.68;2.75;;;;;;;-146.27;82.32;43244.34;5093253;28;20072;-75
2024/03/15 08:39:29;;;;;;;9.73;2.78;;;;;;;-146.27;81.71;43113.06;5099666;28;20046;-75
2024/03/15 08:41:54;;;;;;;11.55;2.95;;;;;;;-146.27;81.55;43125.00;5105160;28;20020;-74
2024/03/15 08:44:20;;;;;;;8.98;3.15;;;;;;;-146.27;81.12;43180.69;5095867;28;20031;-73
2024/03/15 08:46:46;;;;;;;11.73;2.50;;;;;;;-146.27;80.67;43119.03;5090989;28;20028;-74
2024/03/15 08:49:15;;;;;;;14.57;3.25;;;;;;;-146.27;80.87;43212.53;5091985;28;20064;-75
2024/03/15 08:51:40;;;;;;;8.13;2.10;;;;;;;-146.27;80.32;43226.44;5087649;28;20031;-76
2024/03/15 08:54:06;;;;;;;5.85;2.40;;;;;;;-146.27;81.43;43375.63;5101660;28;20492;-75
2024/03/15 08:56:32;;;;;;;11.48;3.28;;;;;;;-146.27;82.53;43367.69;5089828;28;20397;-75
2024/03/15 08:58:58;;;;;;;12.48;3.25;;;;;;;-146.27;81.77;43357.72;5081185;28;20104;-75
2024/03/15 09:01:32;;;;;;;13.38;3.88;;;;;;;-146.27;80.93;43343.81;5111064;28;20101;-76
2024/03/15 09:04:07;;;;;;;17.52;2.95;;;;;;;-146.27;80.70;43345.81;5104558;28;20082;-74
2024/03/15 09:06:36;;;;;;;17.58;3.15;;;;;;;-146.27;81.21;43232.41;5086837;28;20438;-75
2024/03/15 09:09:16;;;;;;;11.38;2.90;;;;;;;-146.27;80.53;43208.56;5103359;28;20033;-74
2024/03/15 09:11:43;;;;;;;11.18;2.63;;;;;;;-146.27;80.96;43375.63;5101727;28;20056;-75
2024/03/15 09:14:10;;;;;;;10.88;3.13;;;;;;;-146.27;80.85;43286.13;5098400;28;20465;-75
2024/03/15 09:16:37;;;;;;;20.20;2.67;;;;;;;-146.27;79.92;43244.34;5093843;28;20161;-76
2024/03/15 09:19:03;;;;;;;6.35;2.50;;;;;;;-146.27;81.03;43258.28;5109560;28;20444;-70
2024/03/15 09:21:29;;;;;;;16.80;3.50;;;;;;;-146.27;80.64;43276.19;5097791;28;20020;-69
2024/03/15 09:23:55;;;;;;;16.15;4.07;;;;;;;-146.27;80.64;43186.66;5106746;28;20023;-71
2024/03/15 09:26:20;;;;;;;17.52;3.60;;;;;;;-146.27;80.51;43182.69;5096464;28;20425;-71
2024/03/15 09:28:47;;;;;;;16.05;4.05;;;;;;;-146.27;80.59;43113.06;5080128;28;20135;-70
2024/03/15 09:31:14;;;;;;;18.17;3.53;;;;;;;-146.27;81.86;43292.09;5093467;28;20076;-69
2024/03/15 09:33:44;;;;;;;14.63;4.13;;;;;;;-146.27;81.15;43182.69;5108554;28;20058;-70
2024/03/15 09:36:17;;;;;;;14.65;4.13;;;;;;;-146.27;81.91;43347.78;5095854;28;20143;-71
2024/03/15 09:38:45;;;;;;;16.17;3.40;;;;;;;-146.27;80.91;43198.59;5084537;28;20257;-71
2024/03/15 09:41:15;;;;;;;14.43;3.13;;;;;;;-146.27;80.33;43045.44;5085209;28;20291;-72
2024/03/15 09:43:40;;;;;;;7.45;3.15;;;;;;;-146.27;80.70;43089.19;5087541;28;20345;-71
2024/03/15 09:46:16;;;;;;;17.65;3.50;;;;;;;-146.27;81.12;43196.63;5092833;28;20027;-71
2024/03/15 09:48:44;;;;;;;13.75;3.60;;;;;;;-146.27;83.09;43190.66;5097413;28;20559;-72
2024/03/15 09:51:14;;;;;;;12.70;3.70;;;;;;;-146.27;82.48;43180.69;5100583;28;20468;-71
2024/03/15 09:53:40;;;;;;;14.60;3.25;;;;;;;-146.27;82.44;43164.78;5086392;28;20036;-72
2024/03/15 09:56:14;;;;;;;12.52;2.55;;;;;;;-146.27;81.59;43134.94;5104396;28;20027;-70
2024/03/15 09:58:41;;;;;;;14.18;3.65;;;;;;;-146.27;83.20;43407.47;5104437;28;20028;-73
2024/03/15 10:01:12;;;;;;;10.45;2.42;;;;;;;-146.27;81.80;43192.63;5103226;28;20039;-72
2024/03/15 10:03:41;;;;;;;7.47;2.40;;;;;;;-146.27;80.78;43234.41;5091424;28;20032;-69
2024/03/15 10:06:07;;;;;;;12.32;2.83;;;;;;;-146.27;80.43;43152.84;5089884;28;20107;-70
2024/03/15 10:08:33;;;;;;;12.75;3.10;;;;;;;-146.27;80.91;43156.84;5090154;28;20069;-69
2024/03/15 10:10:59;;;;;;;14.20;3.70;;;;;;;-146.27;79.77;43005.66;5103461;28;20028;-71
2024/03/15 10:13:27;;;;;;;13.43;2.63;;;;;;;-146.27;79.69;43119.03;5095637;28;20043;-71
2024/03/15 10:15:52;;;;;;;10.52;2.78;;;;;;;-146.27;81.24;43232.41;5090457;28;20043;-70
2024/03/15 10:18:18;;;;;;;12.82;2.90;;;;;;;-146.27;80.74;43061.34;5103626;28;20388;-70
2024/03/15 10:20:46;;;;;;;10.73;3.00;;;;;;;-146.27;80.32;43069.31;5090943;28;20146;-71
2024/03/15 10:23:15;;;;;;;9.13;3.05;;;;;;;-146.27;80.48;43103.13;5093527;28;20032;-72
2024/03/15 10:25:43;;;;;;;9.18;3.45;;;;;;;-146.27;80.29;43109.09;5100866;28;20051;-70
2024/03/15 10:28:11;;;;;;;14.27;3.60;;;;;;;-146.27;81.31;43264.25;5103567;28;20089;-70
2024/03/15 10:30:42;;;;;;;10.77;3.45;;;;;;;-146.27;80.15;43065.34;5104976;28;20095;-75
2024/03/15 10:33:08;;;;;;;12.13;3.30;;;;;;;-146.27;80.89;43128.97;5099365;28;20070;-75
2024/03/15 10:35:38;;;;;;;14.65;4.07;;;;;;;-146.27;80.49;43113.06;5101976;28;20424;-75
2024/03/15 10:38:04;;;;;;;14.48;2.40;;;;;;;-146.27;81.31;43212.53;5099678;28;20035;-75
2024/03/15 10:40:32;;;;;;;7.93;2.40;;;;;;;-146.27;81.50;43230.44;5086060;28;20032;-73
2024/03/15 10:43:00;;;;;;;13.13;2.00;;;;;;;-146.27;81.22;43172.75;5073876;28;20032;-74
2024/03/15 10:45:28;;;;;;;9.25;2.08;;;;;;;-146.27;79.88;43136.94;5090480;28;20643;-75
2024/03/15 10:47:55;;;;;;;12.23;2.10;;;;;;;-146.27;80.10;43144.91;5095664;28;20031;-75
2024/03/15 10:50:28;;;;;;;5.45;1.75;;;;;;;-146.27;79.63;43105.13;5093315;28;20493;-75
2024/03/15 10:52:57;;;;;;;8.93;2.05;;;;;;;-146.27;79.97;43132.97;5089435;28;20057;-74
2024/03/15 10:55:27;;;;;;;9.75;2.83;;;;;;;-146.27;80.62;43105.13;5102834;28;20480;-74
2024/03/15 10:57:59;;;;;;;14.07;3.20;;;;;;;-146.27;80.39;43132.97;5093587;28;20024;-73
2024/03/15 11:00:28;;;;;;;10.07;2.63;;;;;;;-146.27;80.34;43140.91;5095590;28;20067;-74
2024/03/15 11:03:30;;;;;;;17.70;2.92;;;;;;;-146.27;80.28;43224.47;5093612;28;20435;-74
2024/03/15 11:05:59;;;;;;;11.02;2.30;;;;;;;-146.27;80.13;43282.16;5081271;28;20053;-74
2024/03/15 11:08:25;;;;;;;5.03;2.15;;;;;;;-146.27;80.32;43311.97;5100710;28;20032;-74
2024/03/15 11:11:05;;;;;;;8.98;2.35;;;;;;;-146.27;78.18;43232.41;5099128;28;20097;-74
2024/03/15 11:13:36;;;;;;;9.07;2.67;;;;;;;-146.27;76.94;43065.34;5108165;28;20039;-74
2024/03/15 11:16:23;;;;;;;7.53;2.55;;;;;;;-146.27;76.88;43059.38;5112125;28;20031;-74